Jefferson, NH (03583)

8:58 AM EDT on September 03, 2015 (GMT -0400)
Kilkenny View Rd | | Change Station
CLOSE
Current Station
Personal Weather Station
Location: Jefferson, NH
Elevation: 1093 ft
Nearby Weather Stations

Elev 1093 ft 44.44 °N, 71.51 °W | Updated 20 seconds ago

Overcast
Overcast
67.3 °F
Feels Like 67.3 °F
N
0.0
Wind Variable Wind from SW
Gusts 0.0 mph

Today
High -- | Low -- °F
--% Chance of Precip.
Yesterday
High -- | Low -- °F
Precip. -- in
6:10 AM 7:18 PM
Waning Gibbous, 70% visible
Pressure 29.93 in
Visibility 4.0 miles
Clouds Overcast 2700 ft
Dew Point 66 °F
Humidity 94%
Rainfall 0.00 in
Snow Depth Not available.
UV 1 out of 12
Pollen 7.70 out of 12
Air Quality Not available.
Flu Activity Not available.
METAR KHIE 031252Z AUTO 00000KT 4SM BR OVC027 19/17 A2993 RMK AO2 SLP134 T01940172 TSNO
Pressure 29.93 in
Visibility 4.0 miles
Clouds Overcast 2700 ft
Dew Point 66 °F
Humidity 94%
Rainfall 0.00 in
Snow Depth Not available.
UV 1 out of 12
Pollen 7.70 out of 12
Air Quality Not available.
Flu Activity Not available.
METAR KHIE 031252Z AUTO 00000KT 4SM BR OVC027 19/17 A2993 RMK AO2 SLP134 T01940172 TSNO

10-Day Weather Forecast

×

Almanac

Astronomy

Sep. 03, 2015 Rise Set
Actual Time
Civil Twilight
Nautical Twilight
Astronomical Twilight
Moon
Length of Visible Light
Length of Day
Tomorrow will be .
, % of the Moon is Illuminated

Today's Extremes

State Highs State Lows

Community

WunderPhotos

Upload Photos

1,851,946 photos uploaded!

WunderBlogs® & News

Nearby

Air Quality

  Air Quality AQ Index Pollutant
Not available.

Snow Depth

Station Depth Elevation

Earthquake Activity

City Distance Mag. Time & Date
Minimum magnitude displayed is 2.5.

Coastal Water Temperatures

Place Temperature

Stations

Nearby Weather Stations

Station Location Temp. Windchill Dew Point Humidity Wind Precip. Elev Updated Type